createdAt,value
2022-08-14T00:02:24.528Z,100361.28
2022-08-14T00:04:56.199Z,100353.66
2022-08-14T00:07:25.532Z,100354.19
2022-08-14T00:10:01.502Z,100349.59
2022-08-14T00:12:48.014Z,100351.47
2022-08-14T00:15:30.027Z,100350.97
2022-08-14T00:18:07.963Z,100355.56
2022-08-14T00:20:43.754Z,100359.84
2022-08-14T00:23:16.786Z,100370.31
2022-08-14T00:25:59.017Z,100365.44
2022-08-14T00:28:36.053Z,100364.44
2022-08-14T00:31:06.761Z,100351.41
2022-08-14T00:33:51.595Z,100357.16
2022-08-14T00:36:35.717Z,100348.41
2022-08-14T00:39:17.951Z,100348.03
2022-08-14T00:41:46.946Z,100348.09
2022-08-14T00:44:27.507Z,100351.63
2022-08-14T00:47:00.885Z,100354.47
2022-08-14T00:49:31.104Z,100350.22
2022-08-14T00:52:07.069Z,100347.53
2022-08-14T00:54:38.841Z,100345.87
2022-08-14T00:57:08.485Z,100351.09
2022-08-14T00:59:37.499Z,100348.91
2022-08-14T01:02:06.583Z,100348.56
2022-08-14T01:04:53.749Z,100343.16
2022-08-14T01:07:24.012Z,100341.63
2022-08-14T01:09:55.893Z,100340.78
2022-08-14T01:12:27.137Z,100343.16
2022-08-14T01:14:58.975Z,100340.75
2022-08-14T01:17:50.780Z,100336.72
2022-08-14T01:20:40.993Z,100338.75
2022-08-14T01:23:16.548Z,100331.94
2022-08-14T01:25:49.168Z,100334.97
2022-08-14T01:28:46.132Z,100333.47
2022-08-14T01:31:14.167Z,100336.34
2022-08-14T01:34:00.166Z,100334.12
2022-08-14T01:36:37.917Z,100332.25
2022-08-14T01:39:13.325Z,100331.94
2022-08-14T01:41:43.935Z,100326.69
2022-08-14T01:44:33.364Z,100329.72
2022-08-14T01:47:09.635Z,100326.69
2022-08-14T01:49:46.197Z,100330.38
2022-08-14T01:52:34.669Z,100322.44
2022-08-14T01:55:17.428Z,100318.41
2022-08-14T01:57:49.666Z,100321.94
2022-08-14T02:00:36.039Z,100319.09
2022-08-14T02:03:06.765Z,100311.00
2022-08-14T02:05:38.327Z,100306.94
2022-08-14T02:08:09.966Z,100303.22
2022-08-14T02:10:46.815Z,100304.87
2022-08-14T02:13:19.084Z,100305.53
2022-08-14T02:15:48.601Z,100311.22
2022-08-14T02:18:18.935Z,100295.56
2022-08-14T02:20:48.939Z,100297.06
2022-08-14T02:23:29.120Z,100297.75
2022-08-14T02:26:24.847Z,100299.31
2022-08-14T02:28:57.845Z,100298.97
2022-08-14T02:31:42.191Z,100302.00
2022-08-14T02:34:22.275Z,100297.81
2022-08-14T02:37:04.485Z,100299.66
2022-08-14T02:39:37.264Z,100295.94
2022-08-14T02:42:13.114Z,100291.22
2022-08-14T02:44:49.334Z,100295.59
2022-08-14T02:47:20.915Z,100293.19
2022-08-14T02:49:54.641Z,100290.00
2022-08-14T02:52:55.555Z,100289.66
2022-08-14T02:55:12.301Z,100279.00
2022-08-14T02:57:57.784Z,100278.34
2022-08-14T03:00:33.076Z,100281.72
2022-08-14T03:03:02.672Z,100280.72
2022-08-14T03:05:41.086Z,100282.25
2022-08-14T03:08:15.331Z,100282.88
2022-08-14T03:10:49.007Z,100276.44
2022-08-14T03:13:21.256Z,100281.16
2022-08-14T03:15:55.478Z,100280.50
2022-08-14T03:18:31.294Z,100282.00
2022-08-14T03:21:07.609Z,100285.19
2022-08-14T03:23:38.673Z,100283.84
2022-08-14T03:26:12.852Z,100283.38
2022-08-14T03:28:49.372Z,100285.25
2022-08-14T03:31:22.476Z,100287.56
2022-08-14T03:33:54.288Z,100281.66
2022-08-14T03:37:38.010Z,100278.81
2022-08-14T03:39:21.933Z,100289.09
2022-08-14T03:41:56.148Z,100283.91
2022-08-14T03:45:19.257Z,100278.88
2022-08-14T03:47:22.475Z,100271.28
2022-08-14T03:50:11.775Z,100270.44
2022-08-14T03:52:41.128Z,100266.75
2022-08-14T03:55:16.044Z,100268.09
2022-08-14T03:57:45.061Z,100267.25
2022-08-14T04:00:40.354Z,100269.62
2022-08-14T04:03:06.406Z,100260.38
2022-08-14T04:05:42.527Z,100257.66
2022-08-14T04:08:29.522Z,100251.09
2022-08-14T04:11:00.848Z,100255.66
2022-08-14T04:13:31.517Z,100250.59
2022-08-14T04:16:06.673Z,100250.63
2022-08-14T04:18:39.685Z,100248.94
2022-08-14T04:21:10.458Z,100245.59
2022-08-14T04:23:39.735Z,100254.03
2022-08-14T04:26:14.866Z,100250.00
2022-08-14T04:29:06.742Z,100247.66
2022-08-14T04:32:57.527Z,100241.72
2022-08-14T04:34:31.658Z,100242.94
2022-08-14T04:37:22.154Z,100236.84
2022-08-14T04:40:11.855Z,100239.69
2022-08-14T04:42:58.134Z,100241.72
2022-08-14T04:45:38.679Z,100241.56
2022-08-14T04:48:36.684Z,100237.31
2022-08-14T04:51:06.504Z,100248.28
2022-08-14T04:53:42.747Z,100239.50
2022-08-14T04:56:31.250Z,100245.03
2022-08-14T04:59:10.710Z,100250.63
2022-08-14T05:01:48.962Z,100247.91
2022-08-14T05:04:21.173Z,100249.06
2022-08-14T05:06:54.302Z,100245.50
2022-08-14T05:09:24.331Z,100241.94
2022-08-14T05:11:53.024Z,100231.91
2022-08-14T05:14:43.427Z,100236.28
2022-08-14T05:17:11.578Z,100233.87
2022-08-14T05:19:44.705Z,100235.50
2022-08-14T05:22:30.078Z,100232.59
2022-08-14T05:24:58.953Z,100226.13
2022-08-14T05:27:27.593Z,100227.41
2022-08-14T05:30:01.175Z,100223.25
2022-08-14T05:32:29.067Z,100223.84
2022-08-14T05:34:59.970Z,100215.31
2022-08-14T05:37:30.839Z,100218.25
2022-08-14T05:40:02.028Z,100218.50
2022-08-14T05:42:32.164Z,100211.06
2022-08-14T05:45:11.148Z,100208.44
2022-08-14T05:47:43.042Z,100203.84
2022-08-14T05:50:17.354Z,100193.03
2022-08-14T05:52:50.218Z,100193.69
2022-08-14T05:55:21.953Z,100202.59
2022-08-14T05:57:54.168Z,100202.94
2022-08-14T06:00:29.382Z,100195.06
2022-08-14T06:03:04.163Z,100196.47
2022-08-14T06:05:38.822Z,100202.81
2022-08-14T06:08:31.479Z,100192.34
2022-08-14T06:11:06.049Z,100192.00
2022-08-14T06:13:41.105Z,100194.84
2022-08-14T06:16:17.924Z,100187.19
2022-08-14T06:18:48.318Z,100181.19
2022-08-14T06:21:17.792Z,100181.25
2022-08-14T06:23:48.805Z,100176.72
2022-08-14T06:26:20.727Z,100166.09
2022-08-14T06:28:52.425Z,100157.81
2022-08-14T06:31:20.801Z,100151.56
2022-08-14T06:35:02.441Z,100156.22
2022-08-14T06:36:39.473Z,100158.09
2022-08-14T06:39:09.890Z,100156.25
2022-08-14T06:41:57.877Z,100159.41
2022-08-14T06:44:32.554Z,100159.09
2022-08-14T06:47:03.287Z,100159.97
2022-08-14T06:49:40.623Z,100164.16
2022-08-14T06:52:18.185Z,100161.63
2022-08-14T06:54:47.410Z,100165.84
2022-08-14T06:57:15.333Z,100164.81
2022-08-14T06:59:43.582Z,100155.75
2022-08-14T07:02:29.840Z,100150.44
2022-08-14T07:05:17.021Z,100155.69
2022-08-14T07:07:52.627Z,100154.34
2022-08-14T07:10:22.078Z,100159.72
2022-08-14T07:13:01.971Z,100156.06
2022-08-14T07:15:34.005Z,100156.41
2022-08-14T07:18:03.538Z,100156.78
2022-08-14T07:20:32.221Z,100158.19
2022-08-14T07:23:07.381Z,100151.56
2022-08-14T07:25:37.770Z,100152.13
2022-08-14T07:28:21.115Z,100150.56
2022-08-14T07:30:50.779Z,100155.81
2022-08-14T07:33:24.785Z,100159.19
2022-08-14T07:35:59.627Z,100168.59
2022-08-14T07:38:34.057Z,100162.16
2022-08-14T07:41:11.655Z,100160.72
2022-08-14T07:43:53.059Z,100167.25
2022-08-14T07:46:28.454Z,100171.84
2022-08-14T07:48:58.246Z,100171.22
2022-08-14T07:51:34.389Z,100156.69
2022-08-14T07:54:11.178Z,100150.91
2022-08-14T07:56:47.156Z,100149.06
2022-08-14T07:59:18.879Z,100147.09
2022-08-14T08:01:51.272Z,100148.09
2022-08-14T08:04:24.476Z,100140.59
2022-08-14T08:06:53.747Z,100148.00
2022-08-14T08:09:32.044Z,100146.09
2022-08-14T08:12:04.905Z,100145.37
2022-08-14T08:14:56.015Z,100141.81
2022-08-14T08:17:28.299Z,100144.56
2022-08-14T08:20:03.295Z,100138.34
2022-08-14T08:22:32.659Z,100141.94
2022-08-14T08:25:02.016Z,100138.94
2022-08-14T08:27:30.369Z,100137.50
2022-08-14T08:30:09.943Z,100138.91
2022-08-14T08:32:41.412Z,100139.59
2022-08-14T08:35:18.805Z,100137.56
2022-08-14T08:37:47.147Z,100145.06
2022-08-14T08:40:31.457Z,100138.44
2022-08-14T08:43:01.319Z,100135.19
2022-08-14T08:45:29.630Z,100133.00
2022-08-14T08:47:57.588Z,100137.09
2022-08-14T08:53:02.049Z,100121.87
2022-08-14T08:55:38.389Z,100117.66
2022-08-14T08:58:16.111Z,100113.38
2022-08-14T09:00:50.264Z,100110.06
2022-08-14T09:03:25.554Z,100110.88
2022-08-14T09:05:57.807Z,100108.13
2022-08-14T09:08:32.553Z,100104.87
2022-08-14T09:11:19.486Z,100104.38
2022-08-14T09:13:51.307Z,100100.84
2022-08-14T09:16:25.326Z,100096.03
2022-08-14T09:18:55.149Z,100100.84
2022-08-14T09:21:25.003Z,100088.63
2022-08-14T09:24:29.133Z,100088.50
2022-08-14T09:26:50.662Z,100089.16
2022-08-14T09:29:23.155Z,100087.59
2022-08-14T09:31:57.603Z,100086.94
2022-08-14T09:34:58.472Z,100087.63
2022-08-14T09:37:43.976Z,100074.87
2022-08-14T09:40:21.993Z,100074.69
2022-08-14T09:43:01.524Z,100074.91
2022-08-14T09:45:39.996Z,100065.69
2022-08-14T09:48:27.492Z,100066.06
2022-08-14T09:50:57.376Z,100057.50
2022-08-14T09:54:18.399Z,100054.22
2022-08-14T09:56:31.640Z,100055.47
2022-08-14T09:59:14.923Z,100050.03
2022-08-14T10:01:46.188Z,100045.16
2022-08-14T10:04:34.656Z,100041.78
2022-08-14T10:07:04.089Z,100039.38
2022-08-14T10:09:33.240Z,100028.44
2022-08-14T10:12:05.038Z,100021.31
2022-08-14T10:14:37.183Z,100025.19
2022-08-14T10:17:08.404Z,100015.28
2022-08-14T10:19:48.848Z,100020.28
2022-08-14T10:23:12.192Z,100015.38
2022-08-14T10:25:14.172Z,100010.47
2022-08-14T10:27:46.435Z,100006.47
2022-08-14T10:30:22.732Z,100007.66
2022-08-14T10:32:55.606Z,100007.13
2022-08-14T10:35:31.112Z,100005.81
2022-08-14T10:38:01.812Z,100005.81
2022-08-14T10:40:43.445Z,100001.41
2022-08-14T10:43:23.136Z,99999.16
2022-08-14T10:46:03.951Z,99986.47
2022-08-14T10:48:57.442Z,99978.41
2022-08-14T10:51:26.723Z,99985.03
2022-08-14T10:54:01.851Z,99979.63
2022-08-14T10:56:45.519Z,99979.88
2022-08-14T10:59:14.020Z,99974.62
2022-08-14T11:01:43.287Z,99979.63
2022-08-14T11:04:25.924Z,99974.09
2022-08-14T11:06:56.630Z,99971.84
2022-08-14T11:09:26.519Z,99971.59
2022-08-14T11:12:34.372Z,99975.75
2022-08-14T11:14:56.331Z,99962.72
2022-08-14T11:17:32.076Z,99950.78
2022-08-14T11:20:02.526Z,99950.50
2022-08-14T11:22:55.624Z,99953.53
2022-08-14T11:25:23.699Z,99948.53
2022-08-14T11:27:55.016Z,99953.00
2022-08-14T11:30:51.515Z,99950.47
2022-08-14T11:33:16.365Z,99944.38
2022-08-14T11:35:49.700Z,99935.19
2022-08-14T11:38:21.443Z,99929.06
2022-08-14T11:40:49.800Z,99939.78
2022-08-14T11:43:29.229Z,99931.22
2022-08-14T11:45:58.344Z,99929.00
2022-08-14T11:49:03.774Z,99916.13
2022-08-14T11:51:23.744Z,99911.53
2022-08-14T11:53:55.052Z,99906.53
2022-08-14T11:56:25.218Z,99906.03
2022-08-14T11:58:55.400Z,99903.66
2022-08-14T12:01:30.908Z,99897.97
2022-08-14T12:04:31.582Z,99896.38
2022-08-14T12:07:01.211Z,99890.03
2022-08-14T12:09:32.020Z,99890.56
2022-08-14T12:12:00.584Z,99887.25
2022-08-14T12:14:35.433Z,99882.03
2022-08-14T12:17:06.526Z,99880.06
2022-08-14T12:19:51.555Z,99866.75
2022-08-14T12:22:35.149Z,99872.47
2022-08-14T12:25:10.680Z,99868.88
2022-08-14T12:27:52.481Z,99866.69
2022-08-14T12:30:42.676Z,99868.38
2022-08-14T12:33:25.672Z,99858.72
2022-08-14T12:36:05.464Z,99850.13
2022-08-14T12:38:36.518Z,99848.19
2022-08-14T12:41:10.591Z,99845.88
2022-08-14T12:43:48.049Z,99846.41
2022-08-14T12:46:27.371Z,99834.53
2022-08-14T12:48:58.563Z,99828.44
2022-08-14T12:51:30.668Z,99818.44
2022-08-14T12:54:00.280Z,99822.84
2022-08-14T12:56:33.239Z,99820.66
2022-08-14T12:59:04.506Z,99817.84
2022-08-14T13:01:59.611Z,99815.47
2022-08-14T13:04:23.264Z,99810.47
2022-08-14T13:06:53.712Z,99801.59
2022-08-14T13:09:27.856Z,99800.59
2022-08-14T13:12:31.934Z,99793.31
2022-08-14T13:14:57.709Z,99790.22
2022-08-14T13:17:26.896Z,99781.88
2022-08-14T13:19:58.474Z,99781.25
2022-08-14T13:22:33.161Z,99787.97
2022-08-14T13:25:05.273Z,99775.75
2022-08-14T13:27:39.125Z,99772.44
2022-08-14T13:30:14.452Z,99776.41
2022-08-14T13:32:53.437Z,99776.19
2022-08-14T13:35:22.609Z,99770.19
2022-08-14T13:37:53.802Z,99764.69
2022-08-14T13:40:26.369Z,99758.63
2022-08-14T13:42:56.751Z,99763.34
2022-08-14T13:45:59.656Z,99752.28
2022-08-14T13:48:28.653Z,99752.00
2022-08-14T13:51:05.367Z,99741.50
2022-08-14T13:54:07.006Z,99742.81
2022-08-14T13:56:37.970Z,99734.63
2022-08-14T13:59:07.399Z,99735.19
2022-08-14T14:01:43.458Z,99731.97
2022-08-14T14:04:19.333Z,99719.28
2022-08-14T14:06:49.890Z,99713.31
2022-08-14T14:09:32.388Z,99715.69
2022-08-14T14:12:08.071Z,99714.13
2022-08-14T14:14:57.332Z,99711.75
2022-08-14T14:17:33.370Z,99707.91
2022-08-14T14:20:04.662Z,99701.38
2022-08-14T14:22:35.790Z,99698.72
2022-08-14T14:25:22.676Z,99692.00
2022-08-14T14:27:53.361Z,99698.94
2022-08-14T14:30:52.435Z,99698.16
2022-08-14T14:33:42.473Z,99698.97
2022-08-14T14:36:04.860Z,99688.31
2022-08-14T14:38:34.824Z,99684.22
2022-08-14T14:41:05.818Z,99680.09
2022-08-14T14:43:37.333Z,99683.63
2022-08-14T14:46:09.976Z,99678.97
2022-08-14T14:48:46.515Z,99677.47
2022-08-14T14:51:24.208Z,99672.22
2022-08-14T14:53:53.987Z,99668.75
2022-08-14T14:56:51.540Z,99670.28
2022-08-14T14:59:14.323Z,99666.84
2022-08-14T15:01:49.720Z,99669.50
2022-08-14T15:04:20.070Z,99661.56
2022-08-14T15:06:49.920Z,99656.31
2022-08-14T15:09:18.475Z,99645.56
2022-08-14T15:11:49.861Z,99651.69
2022-08-14T15:14:54.836Z,99661.91
2022-08-14T15:17:07.270Z,99656.84
2022-08-14T15:19:36.209Z,99661.28
2022-08-14T15:22:04.134Z,99657.91
2022-08-14T15:24:32.643Z,99657.69
2022-08-14T15:27:06.622Z,99653.25
2022-08-14T15:29:39.306Z,99647.66
2022-08-14T15:32:11.826Z,99647.62
2022-08-14T15:34:44.343Z,99644.50
2022-08-14T15:37:19.190Z,99640.78
2022-08-14T15:39:47.084Z,99634.63
2022-08-14T15:42:18.371Z,99638.31
2022-08-14T15:44:58.168Z,99635.41
2022-08-14T15:47:30.139Z,99641.97
2022-08-14T15:50:00.088Z,99628.97
2022-08-14T15:52:35.390Z,99632.00
2022-08-14T15:55:15.814Z,99632.03
2022-08-14T15:58:01.576Z,99629.78
2022-08-14T16:00:51.990Z,99631.66
2022-08-14T16:03:27.180Z,99623.66
2022-08-14T16:06:05.666Z,99626.31
2022-08-14T16:08:33.997Z,99620.25
2022-08-14T16:11:04.116Z,99619.06
2022-08-14T16:13:39.362Z,99617.66
2022-08-14T16:16:47.629Z,99609.94
2022-08-14T16:19:03.276Z,99608.78
2022-08-14T16:21:31.971Z,99615.62
2022-08-14T16:24:01.629Z,99608.56
2022-08-14T16:26:30.052Z,99604.56
2022-08-14T16:29:07.326Z,99603.63
2022-08-14T16:31:36.748Z,99604.09
2022-08-14T16:34:45.509Z,99597.53
2022-08-14T16:36:55.015Z,99592.97
2022-08-14T16:39:24.249Z,99593.44
2022-08-14T16:41:53.548Z,99591.66
2022-08-14T16:44:33.478Z,99594.72
2022-08-14T16:47:05.607Z,99584.50
2022-08-14T16:50:02.806Z,99587.69
2022-08-14T16:52:26.082Z,99588.69
2022-08-14T16:55:14.308Z,99585.12
2022-08-14T16:57:50.348Z,99568.81
2022-08-14T17:00:43.692Z,99565.75
2022-08-14T17:03:14.576Z,99564.09
2022-08-14T17:05:47.090Z,99562.12
2022-08-14T17:08:32.370Z,99559.19
2022-08-14T17:11:11.041Z,99561.13
2022-08-14T17:13:59.383Z,99548.66
2022-08-14T17:16:37.485Z,99548.47
2022-08-14T17:19:09.985Z,99548.91
2022-08-14T17:21:46.776Z,99544.00
2022-08-14T17:24:57.594Z,99537.72
2022-08-14T17:27:05.814Z,99527.53
2022-08-14T17:29:44.807Z,99523.41
2022-08-14T17:32:29.528Z,99527.87
2022-08-14T17:35:16.849Z,99521.44
2022-08-14T17:37:55.768Z,99532.19
2022-08-14T17:40:31.055Z,99528.09
2022-08-14T17:43:02.045Z,99526.41
2022-08-14T17:45:46.961Z,99534.84
2022-08-14T17:49:14.296Z,99546.53
2022-08-14T17:51:23.934Z,99541.06
2022-08-14T17:54:02.269Z,99544.94
2022-08-14T17:56:33.365Z,99539.97
2022-08-14T17:59:04.179Z,99537.75
2022-08-14T18:01:37.640Z,99538.28
2022-08-14T18:04:25.017Z,99540.97
2022-08-14T18:07:16.689Z,99546.97
2022-08-14T18:09:57.143Z,99550.75
2022-08-14T18:12:32.872Z,99550.91
2022-08-14T18:15:14.690Z,99548.28
2022-08-14T18:17:52.821Z,99551.16
2022-08-14T18:21:42.569Z,99552.97
2022-08-14T18:23:14.035Z,99545.72
2022-08-14T18:25:49.287Z,99546.94
2022-08-14T18:28:51.366Z,99542.66
2022-08-14T18:31:42.204Z,99546.59
2022-08-14T18:34:31.282Z,99554.31
2022-08-14T18:37:16.720Z,99557.41
2022-08-14T18:40:01.979Z,99558.31
2022-08-14T18:42:44.664Z,99555.31
2022-08-14T18:45:18.675Z,99560.63
2022-08-14T18:50:52.764Z,99559.63
2022-08-14T18:53:24.600Z,99557.81
2022-08-14T18:55:56.283Z,99562.41
2022-08-14T18:58:46.067Z,99564.88
2022-08-14T19:01:23.806Z,99570.66
2022-08-14T19:03:53.049Z,99570.94
2022-08-14T19:06:37.437Z,99566.34
2022-08-14T19:09:08.225Z,99575.06
2022-08-14T19:11:51.494Z,99567.59
2022-08-14T19:14:46.127Z,99573.56
2022-08-14T19:18:10.927Z,99569.91
2022-08-14T19:20:47.723Z,99568.09
2022-08-14T19:23:18.657Z,99560.75
2022-08-14T19:26:03.541Z,99562.47
2022-08-14T19:28:51.644Z,99558.78
2022-08-14T19:31:55.450Z,99556.53
2022-08-14T19:34:48.145Z,99554.28
2022-08-14T19:37:52.316Z,99552.28
2022-08-14T19:40:33.397Z,99551.09
2022-08-14T19:43:06.635Z,99551.22
2022-08-14T19:45:37.869Z,99554.28
2022-08-14T19:48:15.589Z,99553.72
2022-08-14T19:50:46.281Z,99556.47
2022-08-14T19:53:18.334Z,99555.91
2022-08-14T19:55:59.642Z,99561.34
2022-08-14T19:58:54.727Z,99552.84
2022-08-14T20:01:37.075Z,99554.28
2022-08-14T20:04:45.402Z,99554.50
2022-08-14T20:07:02.111Z,99555.06
2022-08-14T20:11:03.253Z,99553.50
2022-08-14T20:12:35.512Z,99554.34
2022-08-14T20:15:15.482Z,99555.62
2022-08-14T20:17:52.692Z,99556.12
2022-08-14T20:20:32.026Z,99558.66
2022-08-14T20:23:10.913Z,99556.28
2022-08-14T20:25:55.947Z,99554.94
2022-08-14T20:28:32.950Z,99558.66
2022-08-14T20:31:19.587Z,99552.94
2022-08-14T20:34:03.287Z,99564.25
2022-08-14T20:36:31.651Z,99553.25
2022-08-14T20:39:00.635Z,99555.91
2022-08-14T20:41:28.747Z,99555.16
2022-08-14T20:44:20.623Z,99559.00
2022-08-14T20:46:53.266Z,99548.94
2022-08-14T20:49:28.986Z,99550.28
2022-08-14T20:52:00.296Z,99554.78
2022-08-14T20:54:36.266Z,99554.38
2022-08-14T20:57:09.873Z,99561.78
2022-08-14T20:59:43.529Z,99557.22
2022-08-14T21:02:46.854Z,99550.56
2022-08-14T21:05:33.480Z,99560.22
2022-08-14T21:08:08.128Z,99554.44
2022-08-14T21:10:44.525Z,99549.03
2022-08-14T21:13:27.960Z,99549.72
2022-08-14T21:16:33.196Z,99551.44
2022-08-14T21:18:58.352Z,99550.06
2022-08-14T21:21:41.299Z,99549.50
2022-08-14T21:24:39.854Z,99553.06
2022-08-14T21:27:12.876Z,99551.63
2022-08-14T21:29:53.983Z,99552.22
2022-08-14T21:32:35.076Z,99553.91
2022-08-14T21:35:09.968Z,99553.06
2022-08-14T21:37:44.085Z,99556.41
2022-08-14T21:40:40.908Z,99562.28
2022-08-14T21:43:01.508Z,99558.78
2022-08-14T21:45:31.843Z,99570.78
2022-08-14T21:48:09.258Z,99562.03
2022-08-14T21:51:01.827Z,99562.03
2022-08-14T21:53:34.048Z,99563.03
2022-08-14T21:56:03.542Z,99560.28
2022-08-14T21:58:52.611Z,99559.81
2022-08-14T22:01:21.679Z,99565.22
2022-08-14T22:03:57.406Z,99560.16
2022-08-14T22:06:29.482Z,99546.34
2022-08-14T22:08:58.365Z,99537.34
2022-08-14T22:11:27.633Z,99546.34
2022-08-14T22:14:02.211Z,99541.34
2022-08-14T22:17:01.791Z,99544.91
2022-08-14T22:19:43.312Z,99546.78
2022-08-14T22:22:23.864Z,99540.91
2022-08-14T22:25:00.414Z,99540.75
2022-08-14T22:27:55.544Z,99535.53
2022-08-14T22:30:18.684Z,99534.28
2022-08-14T22:32:57.350Z,99541.69
2022-08-14T22:35:27.210Z,99533.94
2022-08-14T22:38:34.706Z,99534.38
2022-08-14T22:40:59.470Z,99530.44
2022-08-14T22:43:36.183Z,99525.88
2022-08-14T22:46:14.730Z,99521.28
2022-08-14T22:48:45.226Z,99523.44
2022-08-14T22:51:14.821Z,99521.37
2022-08-14T22:53:45.229Z,99517.66
2022-08-14T22:56:20.280Z,99513.06
2022-08-14T22:58:53.805Z,99509.53
2022-08-14T23:01:55.491Z,99503.94
2022-08-14T23:04:34.249Z,99498.75
2022-08-14T23:07:22.295Z,99494.59
2022-08-14T23:09:56.540Z,99498.00
2022-08-14T23:12:31.784Z,99486.72
2022-08-14T23:15:04.024Z,99483.19
2022-08-14T23:17:40.454Z,99481.34
2022-08-14T23:20:18.981Z,99484.88
2022-08-14T23:22:51.383Z,99473.00
2022-08-14T23:25:50.008Z,99473.84
2022-08-14T23:28:33.752Z,99462.78
2022-08-14T23:31:08.365Z,99469.69
2022-08-14T23:33:42.086Z,99470.56
2022-08-14T23:36:31.455Z,99472.00
2022-08-14T23:39:02.031Z,99468.91
2022-08-14T23:41:46.944Z,99460.34
2022-08-14T23:44:23.759Z,99450.91
2022-08-14T23:46:56.711Z,99454.66
2022-08-14T23:49:28.635Z,99458.44
2022-08-14T23:52:50.553Z,99457.19
2022-08-14T23:55:06.570Z,99454.06
2022-08-14T23:57:43.817Z,99446.75
